Time;durP1;ratioP1;P1;durP2;ratioP2;P2;SDS_P1;SDS_P2;PMS_P1;PMS_P2;Temp;Humidity;BMP_temperature;BMP_pressure;BME280_temperature;BME280_humidity;BME280_pressure;Samples;Min_cycle;Max_cycle;Signal;HPM_P1;HPM_P2
2020/12/30 00:02:09;;;;;;;7.53;6.03;;;4.50;99.90;;;;;;5036251;28;20202;-74
2020/12/30 00:04:35;;;;;;;5.80;5.13;;;4.50;99.90;;;;;;5032887;28;20175;-73
2020/12/30 00:07:00;;;;;;;7.80;5.90;;;4.70;99.90;;;;;;5033705;28;20198;-73
2020/12/30 00:09:26;;;;;;;5.87;5.00;;;4.80;99.90;;;;;;5035455;28;20313;-73
2020/12/30 00:11:51;;;;;;;7.63;5.80;;;4.80;99.90;;;;;;5034245;28;20191;-73
2020/12/30 00:14:17;;;;;;;6.37;5.13;;;4.90;99.90;;;;;;5035050;28;20159;-73
2020/12/30 00:16:43;;;;;;;5.60;5.00;;;4.90;99.90;;;;;;5045351;28;20209;-73
2020/12/30 00:19:08;;;;;;;8.10;5.97;;;5.10;99.90;;;;;;5052498;28;20171;-72
2020/12/30 00:21:34;;;;;;;7.83;5.07;;;5.00;99.90;;;;;;5053466;28;20191;-73
2020/12/30 00:23:59;;;;;;;7.03;6.33;;;5.00;99.90;;;;;;5043470;28;20197;-73
2020/12/30 00:26:25;;;;;;;10.80;6.00;;;4.80;99.90;;;;;;5046240;28;20174;-73
2020/12/30 00:28:51;;;;;;;5.93;5.33;;;4.80;99.90;;;;;;5050467;28;20245;-73
2020/12/30 00:31:17;;;;;;;9.13;5.37;;;4.80;99.90;;;;;;5052897;28;20421;-73
2020/12/30 00:33:42;;;;;;;6.60;5.90;;;4.90;99.90;;;;;;5051502;28;20241;-75
2020/12/30 00:36:08;;;;;;;7.60;5.03;;;5.00;99.90;;;;;;5046363;28;20167;-73
2020/12/30 00:38:34;;;;;;;10.50;5.77;;;5.00;99.90;;;;;;5040878;28;20632;-73
2020/12/30 00:41:00;;;;;;;8.77;5.40;;;5.10;99.90;;;;;;5051566;28;20175;-73
2020/12/30 00:43:25;;;;;;;11.83;6.13;;;5.10;99.90;;;;;;5045894;28;20803;-73
2020/12/30 00:45:51;;;;;;;8.83;5.50;;;5.10;99.90;;;;;;5048041;28;20175;-73
2020/12/30 00:48:16;;;;;;;9.83;5.53;;;5.10;99.90;;;;;;5034601;28;20206;-73
2020/12/30 00:50:42;;;;;;;8.83;4.83;;;5.10;99.90;;;;;;5041149;28;20183;-73
2020/12/30 00:53:08;;;;;;;8.57;5.60;;;5.10;99.90;;;;;;5041266;28;20241;-73
2020/12/30 00:55:33;;;;;;;6.10;5.60;;;5.10;99.90;;;;;;5051833;28;20190;-73
2020/12/30 00:57:59;;;;;;;5.77;5.17;;;5.10;99.90;;;;;;5035208;28;20176;-73
2020/12/30 01:00:24;;;;;;;6.60;5.27;;;5.10;99.90;;;;;;5046815;28;20203;-73
2020/12/30 01:02:50;;;;;;;5.60;4.57;;;5.10;99.90;;;;;;5052801;28;20219;-73
2020/12/30 01:05:15;;;;;;;8.50;6.33;;;5.20;99.90;;;;;;5040866;28;20225;-73
2020/12/30 01:07:41;;;;;;;6.27;5.63;;;5.20;99.90;;;;;;5034111;28;20541;-73
2020/12/30 01:10:07;;;;;;;5.53;5.03;;;5.20;99.90;;;;;;5033351;28;20211;-73
2020/12/30 01:12:36;;;;;;;9.23;5.70;;;5.20;99.90;;;;;;5032318;28;20214;-73
2020/12/30 01:15:01;;;;;;;5.40;4.90;;;5.30;99.90;;;;;;5033208;28;20179;-73
2020/12/30 01:17:27;;;;;;;9.27;5.50;;;5.30;99.90;;;;;;5034495;28;20426;-73
2020/12/30 01:19:52;;;;;;;7.30;5.30;;;5.40;99.90;;;;;;5033978;28;20179;-73
2020/12/30 01:22:18;;;;;;;6.73;5.10;;;5.40;99.90;;;;;;5035962;28;20199;-73
2020/12/30 01:24:44;;;;;;;6.73;5.50;;;5.40;99.90;;;;;;5037764;28;20231;-73
2020/12/30 01:27:09;;;;;;;6.70;4.83;;;5.40;99.90;;;;;;5050084;28;20175;-73
2020/12/30 01:29:35;;;;;;;7.27;5.47;;;5.30;99.90;;;;;;5055286;28;20238;-73
2020/12/30 01:32:03;;;;;;;6.83;5.27;;;5.40;99.90;;;;;;5050040;28;20203;-73
2020/12/30 01:34:29;;;;;;;8.20;6.13;;;5.40;99.90;;;;;;5035854;28;20217;-73
2020/12/30 01:36:55;;;;;;;6.47;5.27;;;5.40;99.90;;;;;;5035540;28;20483;-74
2020/12/30 01:39:21;;;;;;;6.40;5.20;;;5.30;99.90;;;;;;5034350;28;20175;-73
2020/12/30 01:41:47;;;;;;;8.70;5.33;;;5.20;99.90;;;;;;5047396;28;20198;-73
2020/12/30 01:44:12;;;;;;;8.27;5.77;;;5.10;99.90;;;;;;5057794;28;20436;-73
2020/12/30 01:46:47;;;;;;;6.80;5.57;;;5.00;99.90;;;;;;5047618;28;20962;-73
2020/12/30 01:49:16;;;;;;;8.30;6.20;;;5.00;99.90;;;;;;5038195;28;20596;-73
2020/12/30 01:51:42;;;;;;;11.80;6.50;;;5.10;99.90;;;;;;5050585;28;20444;-73
2020/12/30 01:54:14;;;;;;;7.43;5.43;;;5.00;99.90;;;;;;5057005;28;20910;-73
2020/12/30 01:56:40;;;;;;;5.77;5.07;;;5.00;99.90;;;;;;5035894;28;20445;-73
2020/12/30 01:59:08;;;;;;;7.00;5.63;;;5.10;99.90;;;;;;5035193;28;20421;-73
2020/12/30 02:01:38;;;;;;;7.50;6.23;;;5.10;99.90;;;;;;5034581;28;20450;-73
2020/12/30 02:04:10;;;;;;;5.77;5.20;;;5.10;99.90;;;;;;5034041;28;21063;-73
2020/12/30 02:06:37;;;;;;;6.93;5.73;;;5.00;99.90;;;;;;5034891;28;20517;-73
2020/12/30 02:09:04;;;;;;;6.67;6.07;;;5.00;99.90;;;;;;5051181;28;20521;-73
2020/12/30 02:11:30;;;;;;;8.40;5.93;;;4.80;99.90;;;;;;5049757;28;20579;-72
2020/12/30 02:14:11;;;;;;;7.47;5.80;;;4.90;99.90;;;;;;5036002;28;20430;-73
2020/12/30 02:16:53;;;;;;;8.40;6.40;;;4.90;99.90;;;;;;5038563;28;20432;-73
2020/12/30 02:19:20;;;;;;;6.80;5.37;;;4.90;99.90;;;;;;5037954;28;20422;-73
2020/12/30 02:21:46;;;;;;;6.40;5.23;;;5.00;99.90;;;;;;5034426;28;20432;-74
2020/12/30 02:24:31;;;;;;;7.30;5.50;;;5.00;99.90;;;;;;5037227;28;20544;-73
2020/12/30 02:26:58;;;;;;;9.20;6.30;;;5.00;99.90;;;;;;5054104;28;20791;-73
2020/12/30 02:29:24;;;;;;;8.17;6.77;;;4.90;99.90;;;;;;5054755;28;20460;-73
2020/12/30 02:31:50;;;;;;;7.90;6.30;;;4.80;99.90;;;;;;5052380;28;20803;-73
2020/12/30 02:34:16;;;;;;;8.13;6.40;;;4.90;99.90;;;;;;5043217;28;20187;-73
2020/12/30 02:36:43;;;;;;;9.33;6.43;;;5.00;99.90;;;;;;5034487;28;20182;-73
2020/12/30 02:39:09;;;;;;;6.30;5.17;;;5.00;99.90;;;;;;5034521;28;20802;-73
2020/12/30 02:41:35;;;;;;;8.03;5.43;;;5.00;99.90;;;;;;5040642;28;20453;-73
2020/12/30 02:44:02;;;;;;;7.53;6.00;;;5.00;99.90;;;;;;5043390;28;20429;-73
2020/12/30 02:46:28;;;;;;;7.83;5.40;;;5.00;99.90;;;;;;5040638;28;20422;-73
2020/12/30 02:48:54;;;;;;;8.57;6.43;;;4.90;99.90;;;;;;5034725;28;21130;-72
2020/12/30 02:51:19;;;;;;;6.90;5.50;;;5.00;99.90;;;;;;5034580;28;20183;-73
2020/12/30 02:53:45;;;;;;;7.50;6.60;;;5.00;99.90;;;;;;5036998;28;20472;-72
2020/12/30 02:56:10;;;;;;;8.10;6.00;;;5.00;99.90;;;;;;5036710;28;20175;-73
2020/12/30 02:58:37;;;;;;;7.30;6.30;;;5.10;99.90;;;;;;5042440;28;20183;-73
2020/12/30 03:01:08;;;;;;;9.33;6.23;;;5.00;99.90;;;;;;5054576;28;20217;-73
2020/12/30 03:03:33;;;;;;;7.13;5.90;;;4.90;99.90;;;;;;5047442;28;20457;-73
2020/12/30 03:05:59;;;;;;;8.50;6.47;;;5.00;99.90;;;;;;5033947;28;20487;-73
2020/12/30 03:08:24;;;;;;;8.40;6.30;;;5.00;99.90;;;;;;5033689;28;20218;-73
2020/12/30 03:10:50;;;;;;;8.70;6.53;;;4.90;99.90;;;;;;5046965;28;20546;-72
2020/12/30 03:13:16;;;;;;;7.47;6.13;;;4.80;99.90;;;;;;5037075;28;20237;-73
2020/12/30 03:15:41;;;;;;;9.07;6.60;;;4.90;99.90;;;;;;5037666;28;20541;-73
2020/12/30 03:18:07;;;;;;;9.70;7.70;;;4.80;99.90;;;;;;5036322;28;20740;-73
2020/12/30 03:20:32;;;;;;;10.90;7.53;;;4.80;99.90;;;;;;5046121;28;20190;-72
2020/12/30 03:22:58;;;;;;;8.77;6.80;;;4.90;99.90;;;;;;5035769;28;20689;-73
2020/12/30 03:25:24;;;;;;;8.07;6.77;;;4.90;99.90;;;;;;5049038;28;20172;-73
2020/12/30 03:27:49;;;;;;;7.20;6.53;;;4.90;99.90;;;;;;5033763;28;20182;-73
2020/12/30 03:30:15;;;;;;;7.73;6.07;;;4.80;99.90;;;;;;5034824;28;20722;-73
2020/12/30 03:32:40;;;;;;;8.97;6.43;;;4.80;99.90;;;;;;5035085;28;20323;-73
2020/12/30 03:35:06;;;;;;;8.97;6.97;;;4.80;99.90;;;;;;5034114;28;20230;-73
2020/12/30 03:37:32;;;;;;;10.50;7.90;;;4.80;99.90;;;;;;5036681;28;20187;-73
2020/12/30 03:39:58;;;;;;;9.07;7.57;;;4.70;99.90;;;;;;5050806;28;20246;-73
2020/12/30 03:42:23;;;;;;;10.33;7.23;;;4.70;99.90;;;;;;5035456;28;20218;-72
2020/12/30 03:44:49;;;;;;;9.80;7.67;;;4.50;99.90;;;;;;5039628;28;20483;-73
2020/12/30 03:47:15;;;;;;;9.63;6.80;;;4.60;99.90;;;;;;5052748;28;20182;-72
2020/12/30 03:49:41;;;;;;;9.77;6.93;;;4.60;99.90;;;;;;5037860;28;20199;-73
2020/12/30 03:52:07;;;;;;;11.53;7.50;;;4.70;99.90;;;;;;5032379;28;20238;-73
2020/12/30 03:54:33;;;;;;;8.83;7.00;;;4.70;99.90;;;;;;5046396;28;20785;-73
2020/12/30 03:56:59;;;;;;;9.23;6.80;;;4.80;99.90;;;;;;5053717;28;20182;-73
2020/12/30 03:59:24;;;;;;;8.10;6.87;;;4.80;99.90;;;;;;5054562;28;20250;-73
2020/12/30 04:01:50;;;;;;;9.90;7.20;;;4.80;99.90;;;;;;5055401;28;20199;-73
2020/12/30 04:04:16;;;;;;;8.87;7.00;;;4.90;99.90;;;;;;5039340;28;20186;-73
2020/12/30 04:06:42;;;;;;;9.27;6.20;;;4.80;99.90;;;;;;5033344;28;20179;-73
2020/12/30 04:09:08;;;;;;;10.67;7.60;;;4.90;99.90;;;;;;5053542;28;20191;-73
2020/12/30 04:11:33;;;;;;;8.60;6.80;;;4.80;99.90;;;;;;5051547;28;20554;-73
2020/12/30 04:13:59;;;;;;;8.63;6.73;;;4.90;99.90;;;;;;5049300;28;20167;-73
2020/12/30 04:16:25;;;;;;;8.30;6.63;;;4.80;99.90;;;;;;5034048;28;20191;-73
2020/12/30 04:18:51;;;;;;;8.67;6.73;;;4.80;99.90;;;;;;5043244;28;20718;-73
2020/12/30 04:21:22;;;;;;;10.03;8.27;;;4.80;99.90;;;;;;5033635;28;20431;-73
2020/12/30 04:23:49;;;;;;;7.47;6.60;;;4.70;99.90;;;;;;5032565;28;20894;-73
2020/12/30 04:26:15;;;;;;;8.00;6.97;;;4.60;99.90;;;;;;5044440;28;20441;-73
2020/12/30 04:28:41;;;;;;;8.23;7.33;;;4.60;99.90;;;;;;5047593;28;20461;-73
2020/12/30 04:31:12;;;;;;;9.40;7.37;;;4.60;99.90;;;;;;5033275;28;20464;-73
2020/12/30 04:33:38;;;;;;;7.43;6.23;;;4.50;99.90;;;;;;5032530;28;20176;-73
2020/12/30 04:36:05;;;;;;;10.87;7.47;;;4.50;99.90;;;;;;5030712;28;20503;-73
2020/12/30 04:38:32;;;;;;;8.00;7.20;;;4.40;99.90;;;;;;5041120;28;20440;-73
2020/12/30 04:41:03;;;;;;;7.30;5.60;;;4.40;99.90;;;;;;5033235;28;20434;-73
2020/12/30 04:43:30;;;;;;;8.13;6.47;;;4.30;99.90;;;;;;5050706;28;20457;-73
2020/12/30 04:45:59;;;;;;;8.97;6.53;;;4.30;99.90;;;;;;5041436;28;20433;-73
2020/12/30 04:48:26;;;;;;;6.23;5.73;;;4.20;99.90;;;;;;5041855;28;20457;-73
2020/12/30 04:50:53;;;;;;;7.83;5.97;;;4.00;99.90;;;;;;5053791;28;20410;-73
2020/12/30 04:53:22;;;;;;;8.30;6.67;;;4.00;99.90;;;;;;5047500;28;20846;-73
2020/12/30 04:55:49;;;;;;;6.77;5.67;;;4.00;99.90;;;;;;5041514;28;20512;-73
2020/12/30 04:58:19;;;;;;;8.73;5.80;;;4.00;99.90;;;;;;5050692;28;20487;-73
2020/12/30 05:00:48;;;;;;;9.17;7.47;;;4.00;99.90;;;;;;5038507;28;20430;-73
2020/12/30 05:03:15;;;;;;;7.93;5.97;;;3.90;99.90;;;;;;5033849;28;20959;-73
2020/12/30 05:05:41;;;;;;;8.43;7.27;;;3.80;99.90;;;;;;5041176;28;20840;-73
2020/12/30 05:08:12;;;;;;;7.30;5.80;;;3.90;99.90;;;;;;5051796;28;20432;-73
2020/12/30 05:10:40;;;;;;;10.83;8.30;;;3.90;99.90;;;;;;5032187;28;20895;-73
2020/12/30 05:13:06;;;;;;;7.50;6.50;;;3.90;99.90;;;;;;5040639;28;20464;-73
2020/12/30 05:15:32;;;;;;;8.53;7.20;;;3.90;99.90;;;;;;5036887;28;20433;-73
2020/12/30 05:18:03;;;;;;;7.43;6.67;;;3.90;99.90;;;;;;5051763;28;20435;-73
2020/12/30 05:20:35;;;;;;;8.43;6.50;;;3.90;99.90;;;;;;5033475;28;20816;-73
2020/12/30 05:23:02;;;;;;;7.87;6.43;;;3.90;99.90;;;;;;5052199;28;20453;-73
2020/12/30 05:25:28;;;;;;;9.43;7.83;;;3.90;99.90;;;;;;5038136;28;20432;-73
2020/12/30 05:27:54;;;;;;;10.20;8.00;;;3.60;99.90;;;;;;5042659;28;20461;-73
2020/12/30 05:30:23;;;;;;;11.87;8.67;;;3.50;99.90;;;;;;5050212;28;20590;-73
2020/12/30 05:32:53;;;;;;;10.13;7.60;;;3.50;99.90;;;;;;5053341;28;20273;-73
2020/12/30 05:35:20;;;;;;;9.93;6.97;;;3.60;99.90;;;;;;5035179;28;20438;-73
2020/12/30 05:37:47;;;;;;;13.90;6.80;;;3.50;99.90;;;;;;5038456;28;20437;-73
2020/12/30 05:40:23;;;;;;;9.77;7.57;;;3.50;99.90;;;;;;5047677;28;20445;-73
2020/12/30 05:42:51;;;;;;;12.90;8.60;;;3.40;99.90;;;;;;5033570;28;20453;-73
2020/12/30 05:45:22;;;;;;;9.60;8.03;;;3.40;99.90;;;;;;5050231;28;20440;-73
2020/12/30 05:47:52;;;;;;;9.70;7.53;;;3.40;99.90;;;;;;5050756;28;20453;-73
2020/12/30 05:50:24;;;;;;;10.33;6.73;;;3.40;99.90;;;;;;5043920;28;20472;-73
2020/12/30 05:52:51;;;;;;;9.90;6.90;;;3.40;99.90;;;;;;5067167;28;20439;-73
2020/12/30 05:55:24;;;;;;;10.10;6.30;;;3.40;99.90;;;;;;5037232;28;20516;-73
2020/12/30 05:57:50;;;;;;;9.10;6.50;;;3.40;99.90;;;;;;5031587;28;20890;-73
2020/12/30 06:00:16;;;;;;;10.73;7.67;;;3.40;99.90;;;;;;5047888;28;20432;-73
2020/12/30 06:02:44;;;;;;;10.80;7.53;;;3.20;99.90;;;;;;5049098;28;20265;-72
2020/12/30 06:05:17;;;;;;;10.37;8.07;;;3.10;99.90;;;;;;5033570;28;20433;-73
2020/12/30 06:07:47;;;;;;;9.97;7.50;;;3.00;99.90;;;;;;5048863;28;20524;-73
2020/12/30 06:10:15;;;;;;;11.37;7.80;;;3.00;99.90;;;;;;5039978;28;20461;-73
2020/12/30 06:12:47;;;;;;;9.00;6.77;;;3.00;99.90;;;;;;5043654;28;20859;-73
2020/12/30 06:15:16;;;;;;;10.13;7.80;;;2.90;99.90;;;;;;5040626;28;20518;-73
2020/12/30 06:18:06;;;;;;;13.33;9.73;;;2.80;99.90;;;;;;5055283;28;20430;-73
2020/12/30 06:20:38;;;;;;;12.47;9.77;;;2.80;99.90;;;;;;5055642;28;20433;-73
2020/12/30 06:23:08;;;;;;;13.43;9.57;;;2.80;99.90;;;;;;5048438;28;20449;-73
2020/12/30 06:25:39;;;;;;;15.07;8.90;;;2.80;99.90;;;;;;5037490;28;20951;-74
2020/12/30 06:28:11;;;;;;;14.13;9.93;;;2.80;99.90;;;;;;5037705;28;20399;-72
2020/12/30 06:30:38;;;;;;;15.60;9.80;;;2.60;99.90;;;;;;5034786;28;20992;-73
2020/12/30 06:33:05;;;;;;;16.27;10.60;;;2.50;99.90;;;;;;5041080;28;20861;-73
2020/12/30 06:35:32;;;;;;;19.67;12.60;;;2.40;99.90;;;;;;5046311;28;20440;-73
2020/12/30 06:38:15;;;;;;;19.40;11.73;;;2.40;99.90;;;;;;5035507;28;20430;-73
2020/12/30 06:40:54;;;;;;;19.93;13.40;;;2.40;99.90;;;;;;5034315;28;20446;-72
2020/12/30 06:43:39;;;;;;;19.97;12.80;;;2.40;99.90;;;;;;5046745;28;20453;-73
2020/12/30 06:46:05;;;;;;;16.73;11.73;;;2.30;99.90;;;;;;5055619;28;20432;-73
2020/12/30 06:48:54;;;;;;;16.70;10.37;;;2.40;99.90;;;;;;5041411;28;20473;-73
2020/12/30 06:51:20;;;;;;;13.67;11.07;;;2.40;99.90;;;;;;5037330;28;20436;-72
2020/12/30 06:53:50;;;;;;;17.70;10.97;;;2.40;99.90;;;;;;5046080;28;20442;-72
2020/12/30 06:56:34;;;;;;;23.47;12.90;;;2.40;99.90;;;;;;5055427;28;20532;-73
2020/12/30 06:58:59;;;;;;;24.90;14.30;;;2.40;99.90;;;;;;5051089;28;20804;-72
2020/12/30 07:01:25;;;;;;;25.60;13.93;;;2.30;99.90;;;;;;5054605;28;20417;-73
2020/12/30 07:03:51;;;;;;;22.50;12.40;;;2.30;99.90;;;;;;5040183;28;20198;-73
2020/12/30 07:06:30;;;;;;;19.13;11.50;;;2.30;99.90;;;;;;5035788;28;20266;-73
2020/12/30 07:08:58;;;;;;;19.97;11.93;;;2.30;99.90;;;;;;5047529;28;20476;-73
2020/12/30 07:11:56;;;;;;;17.40;10.17;;;2.40;99.90;;;;;;5041822;28;20583;-73
2020/12/30 07:14:25;;;;;;;24.97;12.93;;;2.50;99.90;;;;;;5043053;28;21123;-74
2020/12/30 07:16:57;;;;;;;22.90;13.97;;;2.40;99.90;;;;;;5045491;28;20528;-72
2020/12/30 07:19:28;;;;;;;26.17;14.27;;;2.50;99.90;;;;;;5033412;28;20410;-72
2020/12/30 07:21:57;;;;;;;22.27;13.70;;;2.40;99.90;;;;;;5033613;28;20446;-72
2020/12/30 07:24:41;;;;;;;19.40;12.83;;;2.40;99.90;;;;;;5033904;28;20794;-72
2020/12/30 07:27:13;;;;;;;20.97;13.10;;;2.50;99.90;;;;;;5033761;28;20417;-72
2020/12/30 07:29:42;;;;;;;24.33;13.97;;;2.60;99.90;;;;;;5039722;28;20485;-72
2020/12/30 07:32:09;;;;;;;22.47;13.00;;;2.60;99.90;;;;;;5053499;28;20522;-72
2020/12/30 07:34:43;;;;;;;19.53;13.20;;;2.70;99.90;;;;;;5053240;28;20421;-71
2020/12/30 07:37:09;;;;;;;21.23;13.17;;;2.60;99.90;;;;;;5053410;28;20767;-72
2020/12/30 07:39:40;;;;;;;21.37;14.03;;;2.60;99.90;;;;;;5049640;28;20429;-72
2020/12/30 07:42:07;;;;;;;21.70;12.80;;;2.70;99.90;;;;;;5048739;28;20518;-72
2020/12/30 07:44:32;;;;;;;24.30;13.40;;;2.80;99.90;;;;;;5053257;28;20499;-72
2020/12/30 07:47:03;;;;;;;19.70;12.40;;;2.70;99.90;;;;;;5047013;28;20868;-72
2020/12/30 07:49:29;;;;;;;18.93;13.33;;;2.80;99.90;;;;;;5045211;28;20212;-72
2020/12/30 07:51:57;;;;;;;16.13;11.80;;;2.80;99.90;;;;;;5044129;28;20500;-72
2020/12/30 07:54:24;;;;;;;17.70;12.00;;;2.80;99.90;;;;;;5033135;28;20795;-72
2020/12/30 07:56:51;;;;;;;17.73;12.43;;;2.80;99.90;;;;;;5049515;28;20870;-71
2020/12/30 07:59:24;;;;;;;18.53;13.03;;;3.00;99.90;;;;;;5042107;28;20426;-72
2020/12/30 08:01:59;;;;;;;15.50;10.07;;;3.00;99.90;;;;;;5033010;28;20814;-71
2020/12/30 08:04:27;;;;;;;27.70;13.13;;;3.00;99.90;;;;;;5032962;28;20401;-72
2020/12/30 08:06:53;;;;;;;18.47;11.30;;;3.00;99.90;;;;;;5050389;28;20428;-72
2020/12/30 08:09:19;;;;;;;16.73;11.70;;;3.10;99.90;;;;;;5051955;28;20451;-72
2020/12/30 08:11:52;;;;;;;18.90;12.00;;;3.10;99.90;;;;;;5052395;28;20432;-72
2020/12/30 08:14:19;;;;;;;18.40;11.53;;;3.20;99.90;;;;;;5051006;28;20414;-72
2020/12/30 08:17:04;;;;;;;15.20;10.23;;;3.00;99.90;;;;;;5033816;28;20418;-72
2020/12/30 08:19:40;;;;;;;14.83;11.40;;;3.00;99.90;;;;;;5032724;28;20406;-72
2020/12/30 08:22:05;;;;;;;21.70;12.80;;;3.00;99.90;;;;;;5032207;28;20479;-72
2020/12/30 08:24:32;;;;;;;18.33;12.07;;;3.10;99.90;;;;;;5041598;28;20941;-72
2020/12/30 08:26:58;;;;;;;16.83;11.87;;;3.10;99.90;;;;;;5041197;28;20173;-72
2020/12/30 08:29:31;;;;;;;18.37;11.70;;;3.10;99.90;;;;;;5052362;28;20788;-72
2020/12/30 08:32:01;;;;;;;23.20;12.17;;;3.10;99.90;;;;;;5039216;28;20473;-72
2020/12/30 08:34:33;;;;;;;15.80;10.63;;;3.20;99.90;;;;;;5049576;28;20427;-72
2020/12/30 08:37:05;;;;;;;19.47;12.17;;;3.20;99.90;;;;;;5052350;28;20439;-72
2020/12/30 08:39:35;;;;;;;13.70;9.87;;;3.30;99.90;;;;;;5052241;28;20427;-71
2020/12/30 08:42:07;;;;;;;14.47;10.40;;;3.20;99.90;;;;;;5051958;28;20504;-72
2020/12/30 08:44:37;;;;;;;15.47;11.10;;;3.30;99.90;;;;;;5035400;28;20452;-72
2020/12/30 08:47:05;;;;;;;15.60;11.17;;;3.40;99.90;;;;;;5037959;28;20579;-72
2020/12/30 08:49:31;;;;;;;18.63;11.83;;;3.50;99.90;;;;;;5051986;28;20445;-72
2020/12/30 08:51:58;;;;;;;17.13;10.10;;;3.60;99.90;;;;;;5050862;28;20854;-72
2020/12/30 08:54:25;;;;;;;14.93;10.63;;;3.70;99.90;;;;;;5036828;28;20414;-72
2020/12/30 08:57:00;;;;;;;13.43;9.27;;;3.80;99.90;;;;;;5030925;28;20548;-72
2020/12/30 08:59:26;;;;;;;14.90;9.60;;;3.90;99.90;;;;;;5037495;28;20419;-73
2020/12/30 09:01:52;;;;;;;14.20;9.90;;;4.20;99.90;;;;;;5043932;28;20441;-73
2020/12/30 09:04:17;;;;;;;8.93;7.57;;;4.60;99.90;;;;;;5046097;28;20429;-72
2020/12/30 09:06:49;;;;;;;12.50;9.60;;;4.70;99.90;;;;;;5051875;28;20163;-72
2020/12/30 09:09:19;;;;;;;16.53;10.40;;;4.60;99.90;;;;;;5052053;28;20202;-73
2020/12/30 09:11:47;;;;;;;13.57;10.10;;;4.30;99.90;;;;;;5052012;28;20516;-72
2020/12/30 09:14:19;;;;;;;13.80;10.93;;;4.30;99.90;;;;;;5038367;28;20430;-72
2020/12/30 09:16:56;;;;;;;10.97;8.73;;;4.20;99.90;;;;;;5031917;28;20460;-72
2020/12/30 09:19:22;;;;;;;14.07;9.40;;;4.10;99.90;;;;;;5030589;28;20880;-72
2020/12/30 09:21:47;;;;;;;16.40;9.80;;;4.10;99.90;;;;;;5031816;28;20529;-72
2020/12/30 09:24:14;;;;;;;16.53;9.40;;;4.10;99.90;;;;;;5039084;28;20175;-73
2020/12/30 09:26:39;;;;;;;12.10;9.10;;;4.10;99.90;;;;;;5031840;28;20797;-72
2020/12/30 09:29:19;;;;;;;12.70;8.87;;;4.00;99.90;;;;;;5031598;28;20551;-72
2020/12/30 09:31:55;;;;;;;17.20;12.30;;;3.90;99.90;;;;;;5031357;28;20561;-72
2020/12/30 09:34:25;;;;;;;14.87;9.60;;;3.90;99.90;;;;;;5043970;28;20424;-73
2020/12/30 09:36:57;;;;;;;13.00;9.87;;;4.00;99.90;;;;;;5051595;28;20398;-72
2020/12/30 09:39:24;;;;;;;17.60;9.87;;;4.00;99.90;;;;;;5051401;28;20941;-72
2020/12/30 09:41:59;;;;;;;13.40;10.40;;;4.00;99.90;;;;;;5052180;28;20432;-73
2020/12/30 09:44:24;;;;;;;13.50;9.00;;;4.00;99.90;;;;;;5042343;28;20421;-72
2020/12/30 09:46:51;;;;;;;16.17;11.07;;;4.20;99.90;;;;;;5036858;28;20937;-73
2020/12/30 09:49:18;;;;;;;14.70;11.70;;;4.30;99.90;;;;;;5036268;28;20672;-73
2020/12/30 09:51:44;;;;;;;13.80;9.60;;;4.40;99.90;;;;;;5042379;28;20503;-73
2020/12/30 09:54:09;;;;;;;12.20;9.17;;;4.50;99.90;;;;;;5047812;28;20425;-73
2020/12/30 09:56:35;;;;;;;12.50;9.33;;;4.60;99.90;;;;;;5034403;28;20418;-72
2020/12/30 09:59:02;;;;;;;12.73;8.70;;;4.70;99.90;;;;;;5034001;28;20179;-72
2020/12/30 10:01:30;;;;;;;14.57;10.00;;;4.90;99.90;;;;;;5051599;28;20182;-73
2020/12/30 10:03:56;;;;;;;13.23;10.17;;;4.90;99.90;;;;;;5050421;28;20432;-72
2020/12/30 10:06:21;;;;;;;13.93;9.20;;;4.70;99.90;;;;;;5051409;28;20430;-73
2020/12/30 10:08:47;;;;;;;12.33;9.50;;;4.80;99.90;;;;;;5053494;28;20195;-73
2020/12/30 10:11:17;;;;;;;12.80;8.43;;;4.90;99.90;;;;;;5042801;28;20586;-73
2020/12/30 10:13:43;;;;;;;15.17;9.70;;;4.90;99.90;;;;;;5038183;28;20183;-73
2020/12/30 10:16:08;;;;;;;13.30;10.23;;;4.90;99.90;;;;;;5034845;28;20426;-72
2020/12/30 10:18:34;;;;;;;12.57;9.60;;;4.90;99.90;;;;;;5038450;28;20657;-72
2020/12/30 10:20:59;;;;;;;13.77;9.20;;;5.00;99.90;;;;;;5035136;28;20187;-73
2020/12/30 10:23:25;;;;;;;12.03;9.13;;;5.10;99.90;;;;;;5039437;28;20561;-72
2020/12/30 10:25:50;;;;;;;12.73;7.80;;;5.10;99.90;;;;;;5035651;28;20257;-73
2020/12/30 10:28:16;;;;;;;9.13;7.83;;;5.10;99.90;;;;;;5034714;28;20819;-73
2020/12/30 10:30:42;;;;;;;9.93;8.37;;;5.40;99.90;;;;;;5048149;28;20182;-73
2020/12/30 10:33:07;;;;;;;12.70;8.40;;;5.50;99.90;;;;;;5053060;28;20687;-73
2020/12/30 10:35:33;;;;;;;12.17;8.73;;;5.60;99.90;;;;;;5055426;28;20163;-73
2020/12/30 10:37:58;;;;;;;9.27;7.13;;;5.90;99.90;;;;;;5055260;28;20167;-73
2020/12/30 10:40:24;;;;;;;11.10;7.47;;;6.30;99.90;;;;;;5045845;28;20194;-73
2020/12/30 10:42:49;;;;;;;12.47;7.00;;;6.70;99.90;;;;;;5034414;28;20274;-73
2020/12/30 10:45:15;;;;;;;8.47;6.47;;;7.00;99.90;;;;;;5034367;28;20641;-73
2020/12/30 10:47:41;;;;;;;8.37;6.73;;;7.10;99.90;;;;;;5035705;28;20191;-73
2020/12/30 10:50:06;;;;;;;9.33;6.67;;;7.10;99.90;;;;;;5050907;28;20198;-73
2020/12/30 10:52:32;;;;;;;9.03;6.70;;;7.10;99.90;;;;;;5050589;28;20535;-73
2020/12/30 10:54:58;;;;;;;9.53;7.87;;;7.20;99.90;;;;;;5040947;28;20641;-73
2020/12/30 10:57:23;;;;;;;10.90;7.10;;;7.60;99.90;;;;;;5048081;28;20172;-73
2020/12/30 10:59:49;;;;;;;12.43;8.43;;;7.80;99.90;;;;;;5034150;28;20705;-73
2020/12/30 11:02:15;;;;;;;8.97;6.50;;;7.90;99.90;;;;;;5042150;28;20230;-73
2020/12/30 11:04:40;;;;;;;10.63;8.33;;;7.90;99.90;;;;;;5035091;28;20183;-72
2020/12/30 11:07:06;;;;;;;13.67;8.30;;;7.90;99.90;;;;;;5033958;28;20583;-73
2020/12/30 11:09:31;;;;;;;8.33;7.27;;;7.80;99.90;;;;;;5033950;28;20211;-73
2020/12/30 11:11:57;;;;;;;8.00;6.47;;;8.00;99.90;;;;;;5043132;28;20298;-73
2020/12/30 11:14:24;;;;;;;9.50;7.60;;;7.50;99.90;;;;;;5050119;28;20175;-73
2020/12/30 11:16:50;;;;;;;32.03;21.97;;;7.60;99.90;;;;;;5046620;28;20281;-73
2020/12/30 11:19:16;;;;;;;11.07;7.57;;;7.60;99.90;;;;;;5053601;28;20511;-73
2020/12/30 11:21:49;;;;;;;13.30;8.27;;;8.00;99.90;;;;;;5052705;28;20570;-73
2020/12/30 11:24:14;;;;;;;8.63;7.40;;;7.90;99.90;;;;;;5053681;28;20418;-73
2020/12/30 11:26:43;;;;;;;9.70;7.87;;;7.40;99.90;;;;;;5052276;28;20405;-73
2020/12/30 11:29:09;;;;;;;11.70;7.93;;;7.30;99.90;;;;;;5043804;28;20265;-72
2020/12/30 11:31:37;;;;;;;13.60;8.30;;;7.30;99.90;;;;;;5044794;28;20445;-73
2020/12/30 11:34:03;;;;;;;12.47;8.90;;;7.20;99.90;;;;;;5033434;28;20648;-73
2020/12/30 11:36:28;;;;;;;13.23;9.13;;;7.20;99.90;;;;;;5044265;28;20445;-73
2020/12/30 11:38:54;;;;;;;13.37;8.50;;;7.20;99.90;;;;;;5043530;28;20236;-73
2020/12/30 11:41:20;;;;;;;12.07;8.40;;;7.00;99.90;;;;;;5032938;28;20176;-73
2020/12/30 11:43:45;;;;;;;14.67;9.80;;;7.00;99.90;;;;;;5036032;28;20182;-73
2020/12/30 11:46:14;;;;;;;22.47;12.37;;;6.80;99.90;;;;;;5048261;28;20628;-73
2020/12/30 11:48:40;;;;;;;11.50;8.40;;;6.60;99.90;;;;;;5042869;28;20207;-73
2020/12/30 11:51:06;;;;;;;13.10;9.40;;;6.50;99.90;;;;;;5035409;28;20972;-73
2020/12/30 11:53:31;;;;;;;11.73;8.30;;;6.60;99.90;;;;;;5053514;28;20278;-73
2020/12/30 11:55:57;;;;;;;11.13;8.53;;;6.60;99.90;;;;;;5045416;28;20255;-73
2020/12/30 11:58:23;;;;;;;16.00;9.80;;;6.80;99.90;;;;;;5033393;28;20286;-73
2020/12/30 12:00:49;;;;;;;10.90;9.10;;;7.00;99.90;;;;;;5031666;28;20954;-72
2020/12/30 12:03:14;;;;;;;16.73;9.27;;;6.90;99.90;;;;;;5035960;28;20200;-73
2020/12/30 12:05:42;;;;;;;14.30;9.63;;;6.70;99.90;;;;;;5047123;28;20190;-72
2020/12/30 12:08:07;;;;;;;13.67;10.40;;;6.60;99.90;;;;;;5033092;28;20539;-73
2020/12/30 12:10:33;;;;;;;14.03;9.47;;;6.40;99.90;;;;;;5032554;28;20450;-73
2020/12/30 12:12:59;;;;;;;15.53;10.00;;;6.20;99.90;;;;;;5033041;28;20191;-73
2020/12/30 12:15:25;;;;;;;17.33;10.73;;;6.30;99.90;;;;;;5032908;28;20167;-73
2020/12/30 12:17:51;;;;;;;19.93;12.60;;;6.30;99.90;;;;;;5032771;28;20406;-73
2020/12/30 12:20:17;;;;;;;14.93;9.47;;;6.40;99.90;;;;;;5039552;28;20621;-73
2020/12/30 12:22:42;;;;;;;24.70;10.20;;;6.50;99.90;;;;;;5032938;28;20199;-73
2020/12/30 12:25:08;;;;;;;13.40;9.77;;;6.70;99.90;;;;;;5032579;28;20186;-72
2020/12/30 12:27:34;;;;;;;14.90;9.23;;;6.70;99.90;;;;;;5035670;28;20179;-73
2020/12/30 12:29:59;;;;;;;15.03;8.00;;;6.80;99.90;;;;;;5046595;28;20207;-73
2020/12/30 12:32:26;;;;;;;16.17;9.93;;;6.80;99.90;;;;;;5034426;28;20557;-73
2020/12/30 12:34:54;;;;;;;14.70;9.73;;;6.90;99.90;;;;;;5031159;28;20184;-73
2020/12/30 12:37:22;;;;;;;14.80;9.80;;;7.00;99.90;;;;;;5040623;28;20466;-73
2020/12/30 12:39:49;;;;;;;14.00;10.07;;;6.90;99.90;;;;;;5043490;28;20416;-73
2020/12/30 12:42:16;;;;;;;17.13;10.00;;;7.00;99.90;;;;;;5042959;28;20437;-73
2020/12/30 12:44:42;;;;;;;15.43;9.77;;;6.70;99.90;;;;;;5040737;28;20461;-73
2020/12/30 12:47:09;;;;;;;14.07;10.87;;;6.50;99.90;;;;;;5043343;28;20456;-73
2020/12/30 12:49:35;;;;;;;15.37;10.60;;;6.40;99.90;;;;;;5038832;28;20482;-73
2020/12/30 12:52:01;;;;;;;17.67;10.83;;;6.40;99.90;;;;;;5041228;28;20508;-73